Lynchburg Regional Preston Glenn Field
KLYH : now visible

Airfield :











YOU CAN JOIN US ON...

 
LOGIN :

Register | Disclaimer

   EN    FR    IT 

 









Legend :    VFR   Marginal VFR   IFR   Intensive IFR   Very Intensive IFR
Visi :
Ceiling :
>= 8 km
>= 3000ft
5 to 8 km
1000 to 3000 ft
1500m to 5 km
500 to 1000 ft
800 to 1500m
200 to 500 ft
< 800m
< 200 ft
Symbols :   Thunderstorms  Fog  Heavy snow  Heavy precipitations  Wind > 20 kt






- Airport Elevation : 938 ft
- IATA code : LYH


KLYH - Lynchburg Regional Preston Glenn Field

CURRENT METAR :
  • 261659Z 10006KT 7SM OVC005 12/09 A2985 RMK AO2 T01170094

EXPIRED METARs :
  • 261654Z 10005KT 1/2SM R04/P6000FT FG OVC004 12/09 A2985 RMK AO2 SLP107 T01170094
  • 261554Z 10008KT 1/2SM R04/P6000FT FG OVC002 11/09 A2987 RMK AO2 SLP116 T01060094
  • 261538Z 05004KT 1/2SM R04/P6000FT FG OVC002 11/09 A2988 RMK AO2 T01060094
  • 261514Z 09006KT 1SM R04/P6000FT BR OVC003 10/09 A2988 RMK AO2 T01000094
  • 261454Z 05005KT 2SM BR OVC003 10/10 A2989 RMK AO2 SLP119 T01000100 50004

TAF KLYH
Valid from the 26 at 12:00 until the 27 at 12:00 UTC


261120Z 2612/2712 00000KT 1SM BR SCT002 BKN250
TEMPO 2612/2614 1/4SM FG OVC001
FM261500 12003KT P6SM SCT070 BKN250
FM262000 13006KT P6SM VCSH BKN035
FM270000 22010G19KT 6SM -SHRA SCT008 OVC030
FM270300 29014G30KT P6SM OVC050
FM270700 29011G25KT P6SM SCT050



MET'MAP, your aeronautical weather chart ! - Copyright ORBIFLY December 2007 - Disclaimer

ORBIFLY MET'MAP TEAM :

Programming & Development : Alexandra Zaïnal
Concept & original design : Baudouin d'Aumeries
Assistance for programming : Marc-Olivier Méhu
Technical & hardware support : Manuel Goepfert

Contact : metmap@orbifly.com




SOURCES & CREDITS :

   NOAA       Earth
Advisory